sensor_id;sensor_type;location;lat;lon;timestamp;pressure;altitude;pressure_sealevel;temperature;humidity
6899;BME280;3488;42.616;23.350;2023-11-19T00:00:08;62265.63;;;2.56;100.00
6899;BME280;3488;42.616;23.350;2023-11-19T00:02:38;62259.59;;;2.55;100.00
6899;BME280;3488;42.616;23.350;2023-11-19T00:05:05;62266.66;;;2.57;100.00
6899;BME280;3488;42.616;23.350;2023-11-19T00:07:35;62267.72;;;2.61;100.00
6899;BME280;3488;42.616;23.350;2023-11-19T00:10:03;62266.19;;;2.59;100.00
6899;BME280;3488;42.616;23.350;2023-11-19T00:12:32;62261.63;;;2.57;100.00
6899;BME280;3488;42.616;23.350;2023-11-19T00:14:59;62265.69;;;2.59;100.00
6899;BME280;3488;42.616;23.350;2023-11-19T00:17:28;62264.16;;;2.57;100.00
6899;BME280;3488;42.616;23.350;2023-11-19T00:19:55;62270.75;;;2.61;100.00
6899;BME280;3488;42.616;23.350;2023-11-19T00:22:22;62276.47;;;2.69;100.00
6899;BME280;3488;42.616;23.350;2023-11-19T00:24:49;62266.38;;;2.67;100.00
6899;BME280;3488;42.616;23.350;2023-11-19T00:27:16;62272.38;;;2.65;100.00
6899;BME280;3488;42.616;23.350;2023-11-19T00:29:43;62264.72;;;2.60;100.00
6899;BME280;3488;42.616;23.350;2023-11-19T00:32:12;62261.50;;;2.52;100.00
6899;BME280;3488;42.616;23.350;2023-11-19T00:34:40;62262.13;;;2.58;100.00
6899;BME280;3488;42.616;23.350;2023-11-19T00:37:07;62268.25;;;2.61;100.00
6899;BME280;3488;42.616;23.350;2023-11-19T00:39:34;62268.25;;;2.61;100.00
6899;BME280;3488;42.616;23.350;2023-11-19T00:42:01;62268.81;;;2.64;100.00
6899;BME280;3488;42.616;23.350;2023-11-19T00:44:28;62267.72;;;2.61;100.00
6899;BME280;3488;42.616;23.350;2023-11-19T00:46:55;62262.13;;;2.58;100.00
6899;BME280;3488;42.616;23.350;2023-11-19T00:49:22;62263.13;;;2.56;100.00
6899;BME280;3488;42.616;23.350;2023-11-19T00:51:50;62259.63;;;2.58;100.00
6899;BME280;3488;42.616;23.350;2023-11-19T00:54:17;62273.38;;;2.66;100.00
6899;BME280;3488;42.616;23.350;2023-11-19T00:56:44;62270.31;;;2.63;100.00
6899;BME280;3488;42.616;23.350;2023-11-19T00:59:11;62263.22;;;2.61;100.00
6899;BME280;3488;42.616;23.350;2023-11-19T01:01:39;62260.16;;;2.58;100.00
6899;BME280;3488;42.616;23.350;2023-11-19T01:04:06;62267.16;;;2.58;100.00
6899;BME280;3488;42.616;23.350;2023-11-19T01:06:34;62273.28;;;2.61;100.00
6899;BME280;3488;42.616;23.350;2023-11-19T01:09:02;62262.69;;;2.61;100.00
6899;BME280;3488;42.616;23.350;2023-11-19T01:11:29;62259.06;;;2.55;100.00
6899;BME280;3488;42.616;23.350;2023-11-19T01:13:56;62264.66;;;2.58;100.00
6899;BME280;3488;42.616;23.350;2023-11-19T01:16:23;62260.56;;;2.54;100.00
6899;BME280;3488;42.616;23.350;2023-11-19T01:18:50;62261.06;;;2.54;100.00
6899;BME280;3488;42.616;23.350;2023-11-19T01:21:18;62266.72;;;2.60;100.00
6899;BME280;3488;42.616;23.350;2023-11-19T01:23:45;62266.66;;;2.57;100.00
6899;BME280;3488;42.616;23.350;2023-11-19T01:26:14;62263.69;;;2.59;100.00
6899;BME280;3488;42.616;23.350;2023-11-19T01:28:41;62264.66;;;2.58;100.00
6899;BME280;3488;42.616;23.350;2023-11-19T01:31:10;62259.41;;;2.48;100.00
6899;BME280;3488;42.616;23.350;2023-11-19T01:33:38;62263.69;;;2.59;100.00
6899;BME280;3488;42.616;23.350;2023-11-19T01:36:06;62265.16;;;2.58;100.00
6899;BME280;3488;42.616;23.350;2023-11-19T01:38:33;62251.88;;;2.48;100.00
6899;BME280;3488;42.616;23.350;2023-11-19T01:41:01;62259.41;;;2.48;100.00
6899;BME280;3488;42.616;23.350;2023-11-19T01:43:34;62254.94;;;2.51;100.00
6899;BME280;3488;42.616;23.350;2023-11-19T01:46:01;62252.88;;;2.49;100.00
6899;BME280;3488;42.616;23.350;2023-11-19T01:48:29;62243.72;;;2.42;100.00
6899;BME280;3488;42.616;23.350;2023-11-19T01:50:57;62249.69;;;2.41;100.00
6899;BME280;3488;42.616;23.350;2023-11-19T01:53:24;62238.53;;;2.34;100.00
6899;BME280;3488;42.616;23.350;2023-11-19T01:55:51;62240.97;;;2.32;100.00
6899;BME280;3488;42.616;23.350;2023-11-19T01:58:19;62232.25;;;2.23;100.00
6899;BME280;3488;42.616;23.350;2023-11-19T02:00:48;62228.72;;;2.22;100.00
6899;BME280;3488;42.616;23.350;2023-11-19T02:03:15;62224.06;;;2.18;100.00
6899;BME280;3488;42.616;23.350;2023-11-19T02:05:42;62210.84;;;2.10;100.00
6899;BME280;3488;42.616;23.350;2023-11-19T02:08:09;62214.84;;;2.09;100.00
6899;BME280;3488;42.616;23.350;2023-11-19T02:10:39;62218.94;;;2.13;100.00
6899;BME280;3488;42.616;23.350;2023-11-19T02:13:06;62214.91;;;2.11;100.00
6899;BME280;3488;42.616;23.350;2023-11-19T02:15:33;62211.31;;;2.08;100.00
6899;BME280;3488;42.616;23.350;2023-11-19T02:18:21;62205.16;;;2.02;100.00
6899;BME280;3488;42.616;23.350;2023-11-19T02:20:49;62211.75;;;2.06;100.00
6899;BME280;3488;42.616;23.350;2023-11-19T02:23:16;62216.84;;;2.08;100.00
6899;BME280;3488;42.616;23.350;2023-11-19T02:25:49;62209.75;;;2.06;100.00
6899;BME280;3488;42.616;23.350;2023-11-19T02:28:22;62211.75;;;2.06;100.00
6899;BME280;3488;42.616;23.350;2023-11-19T02:30:50;62218.44;;;2.12;100.00
6899;BME280;3488;42.616;23.350;2023-11-19T02:33:17;62212.28;;;2.06;100.00
6899;BME280;3488;42.616;23.350;2023-11-19T02:35:44;62221.00;;;2.15;100.00
6899;BME280;3488;42.616;23.350;2023-11-19T02:38:11;62211.38;;;2.10;100.00
6899;BME280;3488;42.616;23.350;2023-11-19T02:40:39;62212.78;;;2.07;100.00
6899;BME280;3488;42.616;23.350;2023-11-19T02:43:06;62220.94;;;2.12;100.00
6899;BME280;3488;42.616;23.350;2023-11-19T02:45:35;62210.22;;;2.04;100.00
6899;BME280;3488;42.616;23.350;2023-11-19T02:48:03;62201.59;;;2.01;100.00
6899;BME280;3488;42.616;23.350;2023-11-19T02:50:32;62206.63;;;2.01;100.00
6899;BME280;3488;42.616;23.350;2023-11-19T02:52:59;62201.56;;;1.98;100.00
6899;BME280;3488;42.616;23.350;2023-11-19T02:55:26;62206.63;;;2.01;100.00
6899;BME280;3488;42.616;23.350;2023-11-19T02:57:56;62202.97;;;1.95;100.00
6899;BME280;3488;42.616;23.350;2023-11-19T03:00:24;62195.84;;;1.90;100.00
6899;BME280;3488;42.616;23.350;2023-11-19T03:03:02;62195.78;;;1.88;100.00
6899;BME280;3488;42.616;23.350;2023-11-19T03:05:43;62198.91;;;1.93;100.00
6899;BME280;3488;42.616;23.350;2023-11-19T03:08:12;62190.81;;;1.90;100.00
6899;BME280;3488;42.616;23.350;2023-11-19T03:10:39;62202.00;;;1.96;100.00
6899;BME280;3488;42.616;23.350;2023-11-19T03:13:11;62197.38;;;1.92;100.00
6899;BME280;3488;42.616;23.350;2023-11-19T03:15:38;62203.66;;;2.03;99.86
6899;BME280;3488;42.616;23.350;2023-11-19T03:18:07;62210.75;;;2.05;99.87
6899;BME280;3488;42.616;23.350;2023-11-19T03:20:34;62217.47;;;2.14;99.06
6899;BME280;3488;42.616;23.350;2023-11-19T03:23:00;62221.53;;;2.15;98.67
6899;BME280;3488;42.616;23.350;2023-11-19T03:25:28;62219.50;;;2.16;99.19
6899;BME280;3488;42.616;23.350;2023-11-19T03:27:59;62224.66;;;2.21;98.74
6899;BME280;3488;42.616;23.350;2023-11-19T03:30:26;62230.25;;;2.24;98.63
6899;BME280;3488;42.616;23.350;2023-11-19T03:32:54;62230.28;;;2.26;98.09
6899;BME280;3488;42.616;23.350;2023-11-19T03:35:22;62237.38;;;2.28;97.92
6899;BME280;3488;42.616;23.350;2023-11-19T03:37:50;62236.97;;;2.33;98.34
6899;BME280;3488;42.616;23.350;2023-11-19T03:40:18;62236.97;;;2.33;97.66
6899;BME280;3488;42.616;23.350;2023-11-19T03:42:45;62231.78;;;2.25;98.33
6899;BME280;3488;42.616;23.350;2023-11-19T03:45:13;62233.25;;;2.24;98.66
6899;BME280;3488;42.616;23.350;2023-11-19T03:47:41;62227.28;;;2.26;98.71
6899;BME280;3488;42.616;23.350;2023-11-19T03:50:08;62241.59;;;2.38;99.19
6899;BME280;3488;42.616;23.350;2023-11-19T03:52:36;62242.50;;;2.33;98.40
6899;BME280;3488;42.616;23.350;2023-11-19T03:55:04;62240.53;;;2.34;98.01
6899;BME280;3488;42.616;23.350;2023-11-19T03:57:34;62229.78;;;2.26;98.71
6899;BME280;3488;42.616;23.350;2023-11-19T04:00:01;62235.38;;;2.29;98.97
6899;BME280;3488;42.616;23.350;2023-11-19T04:02:33;62234.88;;;2.28;99.21
6899;BME280;3488;42.616;23.350;2023-11-19T04:05:00;62226.69;;;2.23;99.59
6899;BME280;3488;42.616;23.350;2023-11-19T04:07:28;62231.78;;;2.25;99.52
6899;BME280;3488;42.616;23.350;2023-11-19T04:09:57;62226.13;;;2.20;99.60
6899;BME280;3488;42.616;23.350;2023-11-19T04:12:24;62222.50;;;2.14;100.00
6899;BME280;3488;42.616;23.350;2023-11-19T04:14:51;62221.06;;;2.17;100.00
6899;BME280;3488;42.616;23.350;2023-11-19T04:17:18;62227.69;;;2.21;100.00
6899;BME280;3488;42.616;23.350;2023-11-19T04:19:45;62213.41;;;2.12;100.00
6899;BME280;3488;42.616;23.350;2023-11-19T04:22:11;62222.03;;;2.16;100.00
6899;BME280;3488;42.616;23.350;2023-11-19T04:24:38;62219.91;;;2.11;100.00
6899;BME280;3488;42.616;23.350;2023-11-19T04:27:07;62228.09;;;2.17;100.00
6899;BME280;3488;42.616;23.350;2023-11-19T04:29:34;62209.69;;;2.04;100.00
6899;BME280;3488;42.616;23.350;2023-11-19T04:32:01;62227.63;;;2.19;100.00
6899;BME280;3488;42.616;23.350;2023-11-19T04:34:28;62217.00;;;2.16;100.00
6899;BME280;3488;42.616;23.350;2023-11-19T04:36:55;62213.81;;;2.08;100.00
6899;BME280;3488;42.616;23.350;2023-11-19T04:39:22;62219.47;;;2.13;100.00
6899;BME280;3488;42.616;23.350;2023-11-19T04:41:50;62220.47;;;2.14;99.68
6899;BME280;3488;42.616;23.350;2023-11-19T04:44:20;62211.88;;;2.11;100.00
6899;BME280;3488;42.616;23.350;2023-11-19T04:46:47;62209.19;;;2.03;99.52
6899;BME280;3488;42.616;23.350;2023-11-19T04:49:14;62203.09;;;2.00;99.64
6899;BME280;3488;42.616;23.350;2023-11-19T04:51:43;62206.16;;;2.03;100.00
6899;BME280;3488;42.616;23.350;2023-11-19T04:54:11;62204.69;;;2.04;99.67
6899;BME280;3488;42.616;23.350;2023-11-19T04:56:38;62204.13;;;2.01;99.61
6899;BME280;3488;42.616;23.350;2023-11-19T04:59:06;62210.28;;;2.07;98.54
6899;BME280;3488;42.616;23.350;2023-11-19T05:01:35;62207.06;;;1.99;98.29
6899;BME280;3488;42.616;23.350;2023-11-19T05:04:02;62207.66;;;2.02;98.12
6899;BME280;3488;42.616;23.350;2023-11-19T05:06:29;62202.00;;;1.96;98.28
6899;BME280;3488;42.616;23.350;2023-11-19T05:09:00;62202.00;;;1.96;98.15
6899;BME280;3488;42.616;23.350;2023-11-19T05:11:30;62197.84;;;1.90;98.64
6899;BME280;3488;42.616;23.350;2023-11-19T05:13:57;62200.00;;;1.97;98.68
6899;BME280;3488;42.616;23.350;2023-11-19T05:16:24;62203.56;;;1.98;98.55
6899;BME280;3488;42.616;23.350;2023-11-19T05:18:53;62203.56;;;1.98;98.21
6899;BME280;3488;42.616;23.350;2023-11-19T05:21:20;62197.97;;;1.95;98.23
6899;BME280;3488;42.616;23.350;2023-11-19T05:23:47;62202.56;;;1.99;98.51
6899;BME280;3488;42.616;23.350;2023-11-19T05:26:18;62196.47;;;1.96;97.69
6899;BME280;3488;42.616;23.350;2023-11-19T05:28:47;62207.16;;;2.01;98.09
6899;BME280;3488;42.616;23.350;2023-11-19T05:31:16;62208.16;;;2.02;98.33
6899;BME280;3488;42.616;23.350;2023-11-19T05:33:43;62213.75;;;2.05;97.41
6899;BME280;3488;42.616;23.350;2023-11-19T05:36:12;62214.78;;;2.06;97.59
6899;BME280;3488;42.616;23.350;2023-11-19T05:38:39;62222.03;;;2.16;97.33
6899;BME280;3488;42.616;23.350;2023-11-19T05:41:06;62209.25;;;2.06;97.76
6899;BME280;3488;42.616;23.350;2023-11-19T05:43:34;62211.72;;;2.03;98.18
6899;BME280;3488;42.616;23.350;2023-11-19T05:46:01;62207.06;;;1.99;98.59
6899;BME280;3488;42.616;23.350;2023-11-19T05:48:28;62203.03;;;1.97;98.65
6899;BME280;3488;42.616;23.350;2023-11-19T05:50:55;62198.88;;;1.91;98.74
6899;BME280;3488;42.616;23.350;2023-11-19T05:53:24;62193.34;;;1.90;99.40
6899;BME280;3488;42.616;23.350;2023-11-19T05:55:51;62195.84;;;1.90;99.55
6899;BME280;3488;42.616;23.350;2023-11-19T05:58:23;62191.22;;;1.86;100.00
6899;BME280;3488;42.616;23.350;2023-11-19T06:00:51;62188.03;;;1.78;100.00
6899;BME280;3488;42.616;23.350;2023-11-19T06:03:18;62179.94;;;1.75;100.00
6899;BME280;3488;42.616;23.350;2023-11-19T06:05:47;62187.06;;;1.79;100.00
6899;BME280;3488;42.616;23.350;2023-11-19T06:08:14;62189.16;;;1.84;100.00
6899;BME280;3488;42.616;23.350;2023-11-19T06:10:43;62189.63;;;1.82;100.00
6899;BME280;3488;42.616;23.350;2023-11-19T06:13:12;62189.16;;;1.84;100.00
6899;BME280;3488;42.616;23.350;2023-11-19T06:15:40;62194.31;;;1.89;100.00
6899;BME280;3488;42.616;23.350;2023-11-19T06:18:07;62197.38;;;1.92;100.00
6899;BME280;3488;42.616;23.350;2023-11-19T06:20:35;62205.53;;;1.97;100.00
6899;BME280;3488;42.616;23.350;2023-11-19T06:23:02;62207.06;;;1.99;100.00
6899;BME280;3488;42.616;23.350;2023-11-19T06:25:29;62192.34;;;1.92;100.00
6899;BME280;3488;42.616;23.350;2023-11-19T06:27:57;62198.41;;;1.93;100.00
6899;BME280;3488;42.616;23.350;2023-11-19T06:30:24;62187.53;;;1.77;100.00
6899;BME280;3488;42.616;23.350;2023-11-19T06:32:53;62199.97;;;1.94;100.00
6899;BME280;3488;42.616;23.350;2023-11-19T06:35:20;62203.59;;;2.00;100.00
6899;BME280;3488;42.616;23.350;2023-11-19T06:37:47;62206.63;;;2.01;100.00
6899;BME280;3488;42.616;23.350;2023-11-19T06:40:14;62227.63;;;2.19;99.19
6899;BME280;3488;42.616;23.350;2023-11-19T06:42:42;62236.84;;;2.28;98.48
6899;BME280;3488;42.616;23.350;2023-11-19T06:45:11;62237.44;;;2.31;97.03
6899;BME280;3488;42.616;23.350;2023-11-19T06:47:38;62223.09;;;2.19;97.45
6899;BME280;3488;42.616;23.350;2023-11-19T06:50:06;62238.81;;;2.25;97.67
6899;BME280;3488;42.616;23.350;2023-11-19T06:52:35;62213.81;;;2.08;98.84
6899;BME280;3488;42.616;23.350;2023-11-19T06:55:03;62223.06;;;2.17;98.88
6899;BME280;3488;42.616;23.350;2023-11-19T06:57:30;62216.44;;;2.13;97.94
6899;BME280;3488;42.616;23.350;2023-11-19T06:59:58;62240.56;;;2.36;96.92
6899;BME280;3488;42.616;23.350;2023-11-19T07:02:26;62272.41;;;2.68;94.59
6899;BME280;3488;42.616;23.350;2023-11-19T07:04:53;62279.50;;;2.70;93.15
6899;BME280;3488;42.616;23.350;2023-11-19T07:07:20;62270.81;;;2.64;94.15
6899;BME280;3488;42.616;23.350;2023-11-19T07:09:47;62256.38;;;2.47;94.53
6899;BME280;3488;42.616;23.350;2023-11-19T07:12:14;62249.25;;;2.43;94.42
6899;BME280;3488;42.616;23.350;2023-11-19T07:14:41;62253.81;;;2.45;95.29
6899;BME280;3488;42.616;23.350;2023-11-19T07:17:08;62248.16;;;2.39;95.83
6899;BME280;3488;42.616;23.350;2023-11-19T07:19:37;62251.75;;;2.43;96.21
6899;BME280;3488;42.616;23.350;2023-11-19T07:22:05;62268.69;;;2.59;95.33
6899;BME280;3488;42.616;23.350;2023-11-19T07:24:33;62253.28;;;2.44;94.60
6899;BME280;3488;42.616;23.350;2023-11-19T07:27:00;62249.69;;;2.41;93.82
6899;BME280;3488;42.616;23.350;2023-11-19T07:29:29;62233.84;;;2.27;93.92
6899;BME280;3488;42.616;23.350;2023-11-19T07:31:57;62236.34;;;2.27;94.73
6899;BME280;3488;42.616;23.350;2023-11-19T07:34:24;62238.47;;;2.32;94.99
6899;BME280;3488;42.616;23.350;2023-11-19T07:36:52;62251.88;;;2.48;94.50
6899;BME280;3488;42.616;23.350;2023-11-19T07:39:20;62249.75;;;2.43;94.68
6899;BME280;3488;42.616;23.350;2023-11-19T07:41:47;62256.47;;;2.52;93.60
6899;BME280;3488;42.616;23.350;2023-11-19T07:44:15;62268.75;;;2.62;92.30
6899;BME280;3488;42.616;23.350;2023-11-19T07:46:42;62267.78;;;2.63;91.72
6899;BME280;3488;42.616;23.350;2023-11-19T07:49:10;62268.31;;;2.64;90.64
6899;BME280;3488;42.616;23.350;2023-11-19T07:51:38;62276.94;;;2.67;90.28
6899;BME280;3488;42.616;23.350;2023-11-19T07:54:06;62276.47;;;2.69;91.39
6899;BME280;3488;42.616;23.350;2023-11-19T07:56:33;62283.19;;;2.78;90.20
6899;BME280;3488;42.616;23.350;2023-11-19T07:59:01;62306.78;;;2.99;90.10
6899;BME280;3488;42.616;23.350;2023-11-19T08:01:28;62308.84;;;3.01;89.13
6899;BME280;3488;42.616;23.350;2023-11-19T08:03:55;62322.72;;;3.14;88.66
6899;BME280;3488;42.616;23.350;2023-11-19T08:06:22;62318.13;;;3.12;87.67
6899;BME280;3488;42.616;23.350;2023-11-19T08:08:50;62338.16;;;3.29;87.10
6899;BME280;3488;42.616;23.350;2023-11-19T08:11:19;62356.00;;;3.42;83.95
6899;BME280;3488;42.616;23.350;2023-11-19T08:13:46;62344.31;;;3.35;83.72
6899;BME280;3488;42.616;23.350;2023-11-19T08:16:13;62309.81;;;2.99;86.52
6899;BME280;3488;42.616;23.350;2023-11-19T08:18:42;62307.34;;;3.02;86.53
6899;BME280;3488;42.616;23.350;2023-11-19T08:21:09;62325.34;;;3.19;84.67
6899;BME280;3488;42.616;23.350;2023-11-19T08:23:36;62309.91;;;3.04;85.28
6899;BME280;3488;42.616;23.350;2023-11-19T08:26:04;62313.47;;;3.05;85.61
6899;BME280;3488;42.616;23.350;2023-11-19T08:28:33;62296.50;;;2.89;87.14
6899;BME280;3488;42.616;23.350;2023-11-19T08:31:00;62309.34;;;3.01;87.89
6899;BME280;3488;42.616;23.350;2023-11-19T08:33:28;62295.94;;;2.86;89.30
6899;BME280;3488;42.616;23.350;2023-11-19T08:35:55;62315.00;;;3.07;87.51
6899;BME280;3488;42.616;23.350;2023-11-19T08:38:23;62323.78;;;3.18;86.80
6899;BME280;3488;42.616;23.350;2023-11-19T08:40:51;62360.75;;;3.51;85.84
6899;BME280;3488;42.616;23.350;2023-11-19T08:43:18;62355.03;;;3.43;85.66
6899;BME280;3488;42.616;23.350;2023-11-19T08:45:47;62348.88;;;3.37;84.98
6899;BME280;3488;42.616;23.350;2023-11-19T08:48:14;62354.13;;;3.47;85.99
6899;BME280;3488;42.616;23.350;2023-11-19T08:50:41;62334.94;;;3.21;86.04
6899;BME280;3488;42.616;23.350;2023-11-19T08:53:09;62346.34;;;3.37;84.01
6899;BME280;3488;42.616;23.350;2023-11-19T08:55:36;62355.63;;;3.46;84.62
6899;BME280;3488;42.616;23.350;2023-11-19T08:58:03;62353.00;;;3.41;86.17
6899;BME280;3488;42.616;23.350;2023-11-19T09:00:30;62381.38;;;3.74;85.30
6899;BME280;3488;42.616;23.350;2023-11-19T09:02:59;62346.81;;;3.35;85.23
6899;BME280;3488;42.616;23.350;2023-11-19T09:05:26;62365.38;;;3.56;85.43
6899;BME280;3488;42.616;23.350;2023-11-19T09:07:53;62295.63;;;2.95;86.68
6899;BME280;3488;42.616;23.350;2023-11-19T09:10:20;62299.59;;;2.92;87.62
6899;BME280;3488;42.616;23.350;2023-11-19T09:12:47;62301.59;;;2.91;88.16
6899;BME280;3488;42.616;23.350;2023-11-19T09:15:14;62289.31;;;2.82;89.36
6899;BME280;3488;42.616;23.350;2023-11-19T09:17:41;62302.69;;;2.95;90.37
6899;BME280;3488;42.616;23.350;2023-11-19T09:20:10;62295.03;;;2.90;88.17
6899;BME280;3488;42.616;23.350;2023-11-19T09:22:41;62317.63;;;3.12;88.48
6899;BME280;3488;42.616;23.350;2023-11-19T09:25:08;62301.63;;;2.94;88.78
6899;BME280;3488;42.616;23.350;2023-11-19T09:27:36;62294.00;;;2.89;87.47
6899;BME280;3488;42.616;23.350;2023-11-19T09:30:04;62278.41;;;2.66;89.41
6899;BME280;3488;42.616;23.350;2023-11-19T09:32:31;62282.63;;;2.75;88.95
6899;BME280;3488;42.616;23.350;2023-11-19T09:34:58;62301.59;;;2.91;88.73
6899;BME280;3488;42.616;23.350;2023-11-19T09:37:27;62316.00;;;3.05;87.47
6899;BME280;3488;42.616;23.350;2023-11-19T09:39:54;62328.88;;;3.20;85.64
6899;BME280;3488;42.616;23.350;2023-11-19T09:42:24;62302.16;;;2.94;86.41
6899;BME280;3488;42.616;23.350;2023-11-19T09:44:51;62319.75;;;3.16;86.78
6899;BME280;3488;42.616;23.350;2023-11-19T09:47:20;62330.84;;;3.17;85.86
6899;BME280;3488;42.616;23.350;2023-11-19T09:49:48;62325.91;;;3.22;86.11
6899;BME280;3488;42.616;23.350;2023-11-19T09:52:16;62298.63;;;2.93;86.82
6899;BME280;3488;42.616;23.350;2023-11-19T09:54:45;62305.19;;;2.95;87.55
6899;BME280;3488;42.616;23.350;2023-11-19T09:57:15;62290.84;;;2.83;89.05
6899;BME280;3488;42.616;23.350;2023-11-19T09:59:44;62316.59;;;3.11;88.06
6899;BME280;3488;42.616;23.350;2023-11-19T10:02:12;62299.13;;;2.94;89.73
6899;BME280;3488;42.616;23.350;2023-11-19T10:04:42;62336.03;;;3.25;88.05
6899;BME280;3488;42.616;23.350;2023-11-19T10:07:10;62349.91;;;3.38;87.63
6899;BME280;3488;42.616;23.350;2023-11-19T10:09:37;62339.28;;;3.35;87.26
6899;BME280;3488;42.616;23.350;2023-11-19T10:12:07;62328.88;;;3.20;87.10
6899;BME280;3488;42.616;23.350;2023-11-19T10:14:35;62341.22;;;3.32;87.08
6899;BME280;3488;42.616;23.350;2023-11-19T10:17:07;62328.38;;;3.20;85.83
6899;BME280;3488;42.616;23.350;2023-11-19T10:19:34;62341.31;;;3.37;85.22
6899;BME280;3488;42.616;23.350;2023-11-19T10:22:04;62366.91;;;3.58;84.85
6899;BME280;3488;42.616;23.350;2023-11-19T10:24:32;62363.38;;;3.57;83.33
6899;BME280;3488;42.616;23.350;2023-11-19T10:26:59;62356.00;;;3.42;84.05
6899;BME280;3488;42.616;23.350;2023-11-19T10:29:31;62365.91;;;3.57;82.63
6899;BME280;3488;42.616;23.350;2023-11-19T10:31:58;62378.75;;;3.69;81.11
6899;BME280;3488;42.616;23.350;2023-11-19T10:34:26;62374.56;;;3.63;82.61
6899;BME280;3488;42.616;23.350;2023-11-19T10:36:55;62397.25;;;3.87;80.33
6899;BME280;3488;42.616;23.350;2023-11-19T10:39:22;62398.31;;;3.88;80.04
6899;BME280;3488;42.616;23.350;2023-11-19T10:41:50;62394.22;;;3.87;78.63
6899;BME280;3488;42.616;23.350;2023-11-19T10:44:34;62398.34;;;3.91;77.39
6899;BME280;3488;42.616;23.350;2023-11-19T10:47:01;62376.69;;;3.67;78.70
6899;BME280;3488;42.616;23.350;2023-11-19T10:49:32;62355.22;;;3.51;79.03
6899;BME280;3488;42.616;23.350;2023-11-19T10:52:01;62341.75;;;3.33;80.56
6899;BME280;3488;42.616;23.350;2023-11-19T10:54:30;62361.72;;;3.50;80.92
6899;BME280;3488;42.616;23.350;2023-11-19T10:56:59;62354.13;;;3.47;79.34
6899;BME280;3488;42.616;23.350;2023-11-19T10:59:30;62366.34;;;3.54;79.78
6899;BME280;3488;42.616;23.350;2023-11-19T11:02:03;62379.84;;;3.73;79.09
6899;BME280;3488;42.616;23.350;2023-11-19T11:04:39;62393.13;;;3.83;77.40
6899;BME280;3488;42.616;23.350;2023-11-19T11:07:09;62410.75;;;4.05;75.95
6899;BME280;3488;42.616;23.350;2023-11-19T11:09:38;62426.59;;;4.16;74.96
6899;BME280;3488;42.616;23.350;2023-11-19T11:12:06;62401.31;;;3.89;77.10
6899;BME280;3488;42.616;23.350;2023-11-19T11:14:34;62417.22;;;4.02;74.21
6899;BME280;3488;42.616;23.350;2023-11-19T11:17:09;62433.22;;;4.20;73.53
6899;BME280;3488;42.616;23.350;2023-11-19T11:19:38;62409.59;;;3.99;74.96
6899;BME280;3488;42.616;23.350;2023-11-19T11:22:06;62420.94;;;4.10;74.05
6899;BME280;3488;42.616;23.350;2023-11-19T11:24:53;62418.44;;;4.13;73.79
6899;BME280;3488;42.616;23.350;2023-11-19T11:27:46;62412.66;;;4.00;73.08
6899;BME280;3488;42.616;23.350;2023-11-19T11:30:25;62417.25;;;4.04;74.36
6899;BME280;3488;42.616;23.350;2023-11-19T11:33:06;62400.81;;;3.88;76.05
6899;BME280;3488;42.616;23.350;2023-11-19T11:35:46;62407.16;;;4.02;76.28
6899;BME280;3488;42.616;23.350;2023-11-19T11:38:21;62423.91;;;4.08;74.48
6899;BME280;3488;42.616;23.350;2023-11-19T11:41:16;62420.94;;;4.10;74.67
6899;BME280;3488;42.616;23.350;2023-11-19T11:43:45;62439.03;;;4.33;74.49
6899;BME280;3488;42.616;23.350;2023-11-19T11:49:14;62420.97;;;4.13;74.50
6899;BME280;3488;42.616;23.350;2023-11-19T11:52:06;62432.28;;;4.24;73.92
6899;BME280;3488;42.616;23.350;2023-11-19T11:54:34;62434.75;;;4.21;73.33
6899;BME280;3488;42.616;23.350;2023-11-19T11:57:06;62425.03;;;4.14;73.58
6899;BME280;3488;42.616;23.350;2023-11-19T11:59:43;62432.72;;;4.19;73.06
6899;BME280;3488;42.616;23.350;2023-11-19T12:02:11;62427.63;;;4.17;73.15
6899;BME280;3488;42.616;23.350;2023-11-19T12:04:41;62451.28;;;4.40;74.00
6899;BME280;3488;42.616;23.350;2023-11-19T12:07:12;62443.00;;;4.29;72.94
6899;BME280;3488;42.616;23.350;2023-11-19T12:09:40;62433.31;;;4.25;72.61
6899;BME280;3488;42.616;23.350;2023-11-19T12:12:13;62429.22;;;4.21;73.36
6899;BME280;3488;42.616;23.350;2023-11-19T12:15:03;62430.75;;;4.22;73.54
6899;BME280;3488;42.616;23.350;2023-11-19T12:17:42;62450.81;;;4.42;73.50
6899;BME280;3488;42.616;23.350;2023-11-19T12:20:16;62460.53;;;4.49;73.06
6899;BME280;3488;42.616;23.350;2023-11-19T12:22:44;62474.91;;;4.60;72.78
6899;BME280;3488;42.616;23.350;2023-11-19T12:25:13;62482.16;;;4.70;70.94
6899;BME280;3488;42.616;23.350;2023-11-19T12:27:40;62461.63;;;4.52;71.73
6899;BME280;3488;42.616;23.350;2023-11-19T12:30:08;62486.31;;;4.77;70.48
6899;BME280;3488;42.616;23.350;2023-11-19T12:32:40;62482.72;;;4.73;70.01
6899;BME280;3488;42.616;23.350;2023-11-19T12:35:09;62488.34;;;4.76;71.83
6899;BME280;3488;42.616;23.350;2023-11-19T12:37:45;62508.38;;;4.93;69.18
6899;BME280;3488;42.616;23.350;2023-11-19T12:40:14;62514.06;;;5.01;69.49
6899;BME280;3488;42.616;23.350;2023-11-19T12:42:43;62515.09;;;5.02;67.24
6899;BME280;3488;42.616;23.350;2023-11-19T12:45:10;62514.13;;;5.04;66.22
6899;BME280;3488;42.616;23.350;2023-11-19T12:47:38;62499.16;;;4.87;67.38
6899;BME280;3488;42.616;23.350;2023-11-19T12:50:08;62498.16;;;4.88;68.05
6899;BME280;3488;42.616;23.350;2023-11-19T12:52:35;62508.88;;;4.94;67.89
6899;BME280;3488;42.616;23.350;2023-11-19T12:55:05;62496.56;;;4.84;67.21
6899;BME280;3488;42.616;23.350;2023-11-19T12:57:39;62496.56;;;4.84;67.33
6899;BME280;3488;42.616;23.350;2023-11-19T13:00:07;62496.06;;;4.84;67.30
6899;BME280;3488;42.616;23.350;2023-11-19T13:02:45;62503.22;;;4.88;68.23
6899;BME280;3488;42.616;23.350;2023-11-19T13:05:23;62494.97;;;4.80;73.41
6899;BME280;3488;42.616;23.350;2023-11-19T13:07:57;62485.31;;;4.76;72.08
6899;BME280;3488;42.616;23.350;2023-11-19T13:10:26;62505.31;;;4.93;71.55
6899;BME280;3488;42.616;23.350;2023-11-19T13:13:01;62526.44;;;5.13;73.88
6899;BME280;3488;42.616;23.350;2023-11-19T13:15:28;62539.25;;;5.23;72.56
6899;BME280;3488;42.616;23.350;2023-11-19T13:17:55;62513.66;;;5.06;64.57
6899;BME280;3488;42.616;23.350;2023-11-19T13:20:22;62528.38;;;5.10;68.76
6899;BME280;3488;42.616;23.350;2023-11-19T13:22:56;62522.31;;;5.09;72.57
6899;BME280;3488;42.616;23.350;2023-11-19T13:25:25;62496.00;;;4.81;74.30
6899;BME280;3488;42.616;23.350;2023-11-19T13:27:53;62480.09;;;4.68;75.78